createdAt,value
2018-09-21T00:00:40.580Z,79.55
2018-09-21T00:03:14.967Z,79.13
2018-09-21T00:05:49.644Z,79.55
2018-09-21T00:08:24.076Z,79.61
2018-09-21T00:10:58.733Z,79.99
2018-09-21T00:13:33.202Z,80.45
2018-09-21T00:16:07.661Z,79.88
2018-09-21T00:18:42.336Z,80.03
2018-09-21T00:21:17.228Z,79.84
2018-09-21T00:23:51.960Z,80.34
2018-09-21T00:26:26.448Z,79.91
2018-09-21T00:29:00.805Z,79.77
2018-09-21T00:31:35.499Z,79.29
2018-09-21T00:34:09.917Z,79.18
2018-09-21T00:36:44.180Z,79.27
2018-09-21T00:39:18.569Z,79.72
2018-09-21T00:41:53.618Z,80.00
2018-09-21T00:44:28.286Z,79.97
2018-09-21T00:47:03.252Z,79.65
2018-09-21T00:49:37.796Z,80.19
2018-09-21T00:52:12.475Z,80.34
2018-09-21T00:54:46.924Z,80.60
2018-09-21T00:57:21.820Z,80.55
2018-09-21T00:59:56.288Z,80.13
2018-09-21T01:02:30.739Z,79.91
2018-09-21T01:05:05.280Z,80.62
2018-09-21T01:07:40.000Z,80.79
2018-09-21T01:10:14.365Z,80.65
2018-09-21T01:12:49.163Z,80.64
2018-09-21T01:15:23.507Z,80.19
2018-09-21T01:17:57.963Z,80.31
2018-09-21T01:20:32.371Z,79.93
2018-09-21T01:23:06.797Z,79.54
2018-09-21T01:25:41.196Z,80.52
2018-09-21T01:28:15.500Z,79.78
2018-09-21T01:30:50.861Z,80.25
2018-09-21T01:33:25.164Z,80.28
2018-09-21T01:35:59.603Z,80.30
2018-09-21T01:38:33.930Z,80.30
2018-09-21T01:41:08.624Z,80.90
2018-09-21T01:43:42.957Z,80.53
2018-09-21T01:46:17.727Z,81.03
2018-09-21T01:48:52.132Z,81.04
2018-09-21T01:51:26.740Z,80.98
2018-09-21T01:54:01.212Z,81.50
2018-09-21T01:56:35.495Z,80.77
2018-09-21T01:59:09.982Z,80.40
2018-09-21T02:01:44.400Z,79.96
2018-09-21T02:04:19.035Z,80.29
2018-09-21T02:06:53.707Z,79.81
2018-09-21T02:09:27.985Z,79.50
2018-09-21T02:12:03.088Z,80.41
2018-09-21T02:14:37.421Z,79.67
2018-09-21T02:17:11.839Z,79.82
2018-09-21T02:19:46.670Z,80.36
2018-09-21T02:22:21.247Z,80.11
2018-09-21T02:24:55.776Z,79.96
2018-09-21T02:27:30.285Z,80.61
2018-09-21T02:30:05.371Z,80.52
2018-09-21T02:32:39.717Z,79.67
2018-09-21T02:35:14.483Z,80.07
2018-09-21T02:37:48.788Z,79.83
2018-09-21T02:40:23.709Z,80.26
2018-09-21T02:42:58.485Z,80.51
2018-09-21T02:45:32.888Z,80.07
2018-09-21T02:48:07.296Z,80.50
2018-09-21T02:50:42.924Z,79.80
2018-09-21T02:53:17.654Z,80.20
2018-09-21T02:55:51.935Z,80.00
2018-09-21T02:58:26.366Z,80.50
2018-09-21T03:01:00.810Z,79.98
2018-09-21T03:03:35.436Z,80.22
2018-09-21T03:06:10.328Z,80.43
2018-09-21T03:08:45.002Z,80.45
2018-09-21T03:11:19.888Z,80.30
2018-09-21T03:13:54.284Z,80.15
2018-09-21T03:16:29.136Z,81.00
2018-09-21T03:19:03.528Z,80.42
2018-09-21T03:21:38.917Z,80.95
2018-09-21T03:24:13.380Z,81.36
2018-09-21T03:26:47.920Z,81.07
2018-09-21T03:29:22.590Z,81.01
2018-09-21T03:31:57.668Z,80.43
2018-09-21T03:34:32.437Z,80.96
2018-09-21T03:37:07.197Z,81.28
2018-09-21T03:39:41.843Z,82.21
2018-09-21T03:42:16.474Z,81.19
2018-09-21T03:44:50.840Z,81.47
2018-09-21T03:47:25.312Z,81.41
2018-09-21T03:49:59.779Z,81.71
2018-09-21T03:52:35.387Z,81.36
2018-09-21T03:55:10.108Z,81.66
2018-09-21T03:57:44.676Z,82.30
2018-09-21T04:00:22.347Z,82.85
2018-09-21T04:02:57.535Z,82.77
2018-09-21T04:05:32.175Z,82.39
2018-09-21T04:08:07.528Z,82.18
2018-09-21T04:10:41.819Z,82.73
2018-09-21T04:13:16.400Z,81.68
2018-09-21T04:15:50.807Z,82.10
2018-09-21T04:18:25.623Z,81.99
2018-09-21T04:21:00.259Z,81.90
2018-09-21T04:23:34.734Z,81.48
2018-09-21T04:26:09.656Z,81.93
2018-09-21T04:28:44.436Z,81.76
2018-09-21T04:31:18.780Z,82.18
2018-09-21T04:33:53.260Z,82.84
2018-09-21T04:36:29.937Z,83.03
2018-09-21T04:39:07.956Z,82.46
2018-09-21T04:41:42.423Z,82.59
2018-09-21T04:44:16.693Z,82.43
2018-09-21T04:46:53.430Z,82.59
2018-09-21T04:49:27.865Z,82.66
2018-09-21T04:52:04.288Z,82.55
2018-09-21T04:54:39.412Z,82.15
2018-09-21T04:57:14.880Z,81.68
2018-09-21T04:59:49.589Z,82.51
2018-09-21T05:02:24.011Z,82.56
2018-09-21T05:04:58.388Z,82.56
2018-09-21T05:07:33.124Z,82.59
2018-09-21T05:10:08.288Z,82.19
2018-09-21T05:12:42.970Z,82.10
2018-09-21T05:15:23.584Z,81.52
2018-09-21T05:17:58.544Z,82.06
2018-09-21T05:20:32.984Z,81.87
2018-09-21T05:23:07.323Z,82.37
2018-09-21T05:25:41.787Z,82.44
2018-09-21T05:28:16.300Z,82.49
2018-09-21T05:30:51.515Z,82.48
2018-09-21T05:33:25.835Z,81.82
2018-09-21T05:36:00.600Z,82.06
2018-09-21T05:38:34.844Z,82.82
2018-09-21T05:41:09.787Z,82.29
2018-09-21T05:43:44.357Z,82.35
2018-09-21T05:46:18.774Z,82.48
2018-09-21T05:48:53.267Z,82.66
2018-09-21T05:51:27.730Z,82.59
2018-09-21T05:54:13.966Z,82.85
2018-09-21T05:56:49.264Z,82.24
2018-09-21T05:59:24.409Z,81.98
2018-09-21T06:01:59.356Z,82.55
2018-09-21T06:04:34.309Z,82.05
2018-09-21T06:07:09.184Z,82.18
2018-09-21T06:09:43.843Z,81.61
2018-09-21T06:12:18.863Z,80.72
2018-09-21T06:14:53.336Z,80.98
2018-09-21T06:17:28.047Z,80.73
2018-09-21T06:20:11.977Z,80.62
2018-09-21T06:22:45.035Z,80.33
2018-09-21T06:25:12.916Z,80.44
2018-09-21T06:27:47.389Z,80.21
2018-09-21T06:30:22.146Z,79.94
2018-09-21T06:32:57.576Z,78.93
2018-09-21T06:35:33.343Z,78.75
2018-09-21T06:38:07.740Z,78.30
2018-09-21T06:40:42.185Z,78.39
2018-09-21T06:43:17.008Z,79.46
2018-09-21T06:45:51.547Z,78.54
2018-09-21T06:48:26.773Z,78.93
2018-09-21T06:51:01.825Z,76.55
2018-09-21T06:53:36.253Z,76.35
2018-09-21T06:56:10.705Z,75.58
2018-09-21T06:58:45.568Z,76.11
2018-09-21T07:01:20.108Z,75.15
2018-09-21T07:03:55.359Z,75.81
2018-09-21T07:06:29.737Z,75.82
2018-09-21T07:09:05.655Z,74.86
2018-09-21T07:11:40.680Z,72.92
2018-09-21T07:14:15.260Z,75.27
2018-09-21T07:16:49.932Z,70.91
2018-09-21T07:19:24.440Z,72.26
2018-09-21T07:21:59.529Z,69.50
2018-09-21T07:24:34.243Z,67.75
2018-09-21T07:27:08.988Z,68.48
2018-09-21T07:29:43.639Z,66.78
2018-09-21T07:32:18.340Z,67.36
2018-09-21T07:34:52.879Z,64.76
2018-09-21T07:37:27.648Z,65.76
2018-09-21T07:40:03.233Z,63.76
2018-09-21T07:42:37.904Z,62.47
2018-09-21T07:45:12.392Z,61.26
2018-09-21T07:47:47.113Z,60.13
2018-09-21T07:50:21.657Z,59.13
2018-09-21T07:52:56.696Z,61.31
2018-09-21T07:55:31.630Z,60.93
2018-09-21T07:58:05.969Z,57.16
2018-09-21T08:00:40.434Z,57.82
2018-09-21T08:03:14.752Z,57.12
2018-09-21T08:05:49.208Z,56.18
2018-09-21T08:08:24.108Z,57.73
2018-09-21T08:10:58.468Z,56.02
2018-09-21T08:13:33.115Z,54.44
2018-09-21T08:16:08.171Z,53.55
2018-09-21T08:18:42.618Z,56.44
2018-09-21T08:21:17.372Z,56.59
2018-09-21T08:23:52.020Z,53.23
2018-09-21T08:26:26.390Z,55.94
2018-09-21T08:29:01.012Z,51.38
2018-09-21T08:31:35.708Z,52.26
2018-09-21T08:34:10.276Z,52.32
2018-09-21T08:36:44.570Z,50.06
2018-09-21T08:39:19.038Z,51.92
2018-09-21T08:41:53.463Z,48.42
2018-09-21T08:44:28.280Z,51.50
2018-09-21T08:47:02.992Z,48.52
2018-09-21T08:49:37.594Z,56.16
2018-09-21T08:52:12.103Z,50.98
2018-09-21T08:54:46.716Z,48.08
2018-09-21T08:57:21.848Z,48.33
2018-09-21T08:59:56.328Z,50.42
2018-09-21T09:02:31.153Z,50.57
2018-09-21T09:05:06.387Z,48.78
2018-09-21T09:07:40.852Z,51.08
2018-09-21T09:10:15.423Z,50.06
2018-09-21T09:12:50.012Z,50.35
2018-09-21T09:15:24.484Z,49.30
2018-09-21T09:17:59.117Z,48.16
2018-09-21T09:20:33.600Z,47.47
2018-09-21T09:23:08.860Z,48.18
2018-09-21T09:25:43.806Z,46.81
2018-09-21T09:28:18.731Z,47.20
2018-09-21T09:30:53.457Z,46.67
2018-09-21T09:33:27.788Z,44.36
2018-09-21T09:36:02.288Z,51.33
2018-09-21T09:38:36.760Z,43.42
2018-09-21T09:41:11.244Z,48.35
2018-09-21T09:43:46.371Z,42.51
2018-09-21T09:46:20.643Z,46.46
2018-09-21T09:48:55.162Z,48.56
2018-09-21T09:51:30.095Z,45.81
2018-09-21T09:54:04.728Z,46.12
2018-09-21T09:56:39.590Z,44.82
2018-09-21T09:59:14.655Z,44.66
2018-09-21T10:01:49.213Z,41.09
2018-09-21T10:04:23.779Z,40.91
2018-09-21T10:06:58.151Z,43.36
2018-09-21T10:09:32.644Z,42.87
2018-09-21T10:12:07.448Z,45.19
2018-09-21T10:14:41.905Z,45.07
2018-09-21T10:17:16.484Z,40.38
2018-09-21T10:19:51.016Z,41.91
2018-09-21T10:22:25.433Z,38.90
2018-09-21T10:24:59.885Z,38.99
2018-09-21T10:27:34.820Z,43.13
2018-09-21T10:30:09.282Z,38.17
2018-09-21T10:32:43.740Z,38.85
2018-09-21T10:35:18.042Z,39.36
2018-09-21T10:37:52.697Z,37.09
2018-09-21T10:40:27.117Z,38.85
2018-09-21T10:43:02.305Z,39.14
2018-09-21T10:45:37.560Z,39.58
2018-09-21T10:48:12.452Z,39.50
2018-09-21T10:50:47.171Z,39.01
2018-09-21T10:53:22.004Z,40.26
2018-09-21T10:55:56.867Z,38.99
2018-09-21T10:58:31.270Z,39.89
2018-09-21T11:01:06.294Z,35.16
2018-09-21T11:03:40.907Z,38.25
2018-09-21T11:06:15.896Z,41.02
2018-09-21T11:08:50.285Z,38.77
2018-09-21T11:11:24.674Z,40.94
2018-09-21T11:13:59.279Z,37.17
2018-09-21T11:16:33.886Z,41.15
2018-09-21T11:19:08.860Z,42.17
2018-09-21T11:21:43.295Z,42.50
2018-09-21T11:24:17.907Z,44.20
2018-09-21T11:26:52.531Z,44.75
2018-09-21T11:29:27.071Z,42.13
2018-09-21T11:32:01.464Z,40.62
2018-09-21T11:34:36.091Z,40.73
2018-09-21T11:37:10.676Z,37.20
2018-09-21T11:39:46.102Z,40.63
2018-09-21T11:42:21.576Z,40.92
2018-09-21T11:44:55.894Z,40.14
2018-09-21T11:47:30.569Z,38.65
2018-09-21T11:50:05.333Z,38.79
2018-09-21T11:52:39.847Z,39.47
2018-09-21T11:55:14.364Z,34.59
2018-09-21T11:57:48.969Z,35.12
2018-09-21T12:00:24.188Z,35.08
2018-09-21T12:02:59.056Z,39.16
2018-09-21T12:05:33.696Z,35.11
2018-09-21T12:08:08.515Z,39.87
2018-09-21T12:10:43.021Z,37.40
2018-09-21T12:13:17.567Z,34.62
2018-09-21T12:15:52.429Z,37.44
2018-09-21T12:18:27.072Z,38.73
2018-09-21T12:21:01.500Z,36.60
2018-09-21T12:23:35.992Z,37.38
2018-09-21T12:26:10.368Z,38.88
2018-09-21T12:28:45.044Z,32.32
2018-09-21T12:31:19.559Z,33.79
2018-09-21T12:33:54.236Z,34.58
2018-09-21T12:36:28.899Z,37.02
2018-09-21T12:39:04.984Z,38.16
2018-09-21T12:41:39.719Z,37.45
2018-09-21T12:44:15.546Z,36.34
2018-09-21T12:46:49.885Z,35.77
2018-09-21T12:49:24.334Z,37.98
2018-09-21T12:51:58.792Z,34.55
2018-09-21T12:54:33.501Z,35.05
2018-09-21T12:57:08.016Z,33.52
2018-09-21T12:59:42.721Z,35.94
2018-09-21T13:02:17.201Z,34.87
2018-09-21T13:04:51.503Z,33.72
2018-09-21T13:07:26.067Z,35.97
2018-09-21T13:10:00.392Z,31.34
2018-09-21T13:12:34.863Z,32.21
2018-09-21T13:15:09.515Z,34.77
2018-09-21T13:17:43.775Z,34.05
2018-09-21T13:20:18.468Z,34.52
2018-09-21T13:22:52.949Z,34.17
2018-09-21T13:25:27.309Z,32.71
2018-09-21T13:28:02.024Z,35.61
2018-09-21T13:30:36.653Z,36.80
2018-09-21T13:33:11.098Z,33.89
2018-09-21T13:35:45.916Z,34.92
2018-09-21T13:38:20.565Z,31.57
2018-09-21T13:40:55.916Z,31.46
2018-09-21T13:43:30.427Z,33.39
2018-09-21T13:46:05.845Z,30.11
2018-09-21T13:48:40.751Z,31.07
2018-09-21T13:51:15.420Z,31.01
2018-09-21T13:53:50.012Z,32.65
2018-09-21T13:56:24.515Z,34.41
2018-09-21T13:58:58.779Z,31.67
2018-09-21T14:01:33.469Z,31.25
2018-09-21T14:04:08.492Z,31.72
2018-09-21T14:06:42.868Z,32.07
2018-09-21T14:09:17.506Z,33.89
2018-09-21T14:11:52.014Z,33.08
2018-09-21T14:14:26.584Z,32.10
2018-09-21T14:17:01.062Z,34.51
2018-09-21T14:19:35.488Z,34.15
2018-09-21T14:22:10.005Z,37.08
2018-09-21T14:24:44.415Z,35.57
2018-09-21T14:27:18.836Z,34.58
2018-09-21T14:29:53.571Z,35.07
2018-09-21T14:32:28.124Z,34.22
2018-09-21T14:35:02.583Z,37.02
2018-09-21T14:37:37.395Z,35.79
2018-09-21T14:40:11.689Z,36.04
2018-09-21T14:42:46.233Z,34.76
2018-09-21T14:45:20.611Z,36.21
2018-09-21T14:47:55.240Z,35.59
2018-09-21T14:50:30.331Z,39.02
2018-09-21T14:53:05.358Z,38.72
2018-09-21T14:55:39.729Z,41.96
2018-09-21T14:58:14.229Z,39.24
2018-09-21T15:00:49.143Z,40.39
2018-09-21T15:03:26.594Z,39.39
2018-09-21T15:06:01.264Z,38.06
2018-09-21T15:08:35.786Z,40.54
2018-09-21T15:11:10.708Z,40.74
2018-09-21T15:13:45.353Z,39.29
2018-09-21T15:16:20.794Z,38.78
2018-09-21T15:18:55.463Z,39.17
2018-09-21T15:21:30.391Z,40.06
2018-09-21T15:24:04.941Z,39.75
2018-09-21T15:26:39.816Z,41.01
2018-09-21T15:29:14.939Z,41.03
2018-09-21T15:31:49.648Z,39.38
2018-09-21T15:34:24.644Z,39.67
2018-09-21T15:36:59.403Z,43.59
2018-09-21T15:39:33.757Z,41.45
2018-09-21T15:42:08.696Z,42.87
2018-09-21T15:44:43.387Z,40.20
2018-09-21T15:47:18.143Z,40.55
2018-09-21T15:49:52.597Z,40.57
2018-09-21T15:52:27.426Z,41.22
2018-09-21T15:55:01.786Z,41.94
2018-09-21T15:57:36.097Z,43.19
2018-09-21T16:00:10.748Z,42.73
2018-09-21T16:02:45.250Z,44.00
2018-09-21T16:05:20.279Z,43.99
2018-09-21T16:07:54.721Z,43.12
2018-09-21T16:10:29.120Z,43.03
2018-09-21T16:13:03.587Z,43.84
2018-09-21T16:15:38.327Z,42.01
2018-09-21T16:18:12.831Z,43.07
2018-09-21T16:20:47.628Z,43.27
2018-09-21T16:23:22.056Z,43.60
2018-09-21T16:25:56.569Z,43.00
2018-09-21T16:28:31.397Z,44.05
2018-09-21T16:31:05.976Z,45.44
2018-09-21T16:33:40.819Z,44.61
2018-09-21T16:36:16.926Z,43.88
2018-09-21T16:38:51.748Z,45.74
2018-09-21T16:41:26.407Z,44.58
2018-09-21T16:44:00.768Z,44.89
2018-09-21T16:46:35.823Z,46.11
2018-09-21T16:49:10.708Z,46.03
2018-09-21T16:51:45.849Z,46.78
2018-09-21T16:54:20.424Z,46.35
2018-09-21T16:56:55.093Z,46.53
2018-09-21T16:59:30.256Z,46.34
2018-09-21T17:02:04.858Z,47.02
2018-09-21T17:04:39.502Z,47.45
2018-09-21T17:07:16.949Z,46.98
2018-09-21T17:09:51.573Z,47.17
2018-09-21T17:12:26.314Z,47.74
2018-09-21T17:15:01.262Z,48.43
2018-09-21T17:17:36.095Z,48.01
2018-09-21T17:20:10.996Z,49.37
2018-09-21T17:22:45.646Z,48.48
2018-09-21T17:25:20.365Z,48.33
2018-09-21T17:27:55.016Z,48.44
2018-09-21T17:30:30.289Z,49.03
2018-09-21T17:33:05.731Z,48.24
2018-09-21T17:35:40.232Z,49.00
2018-09-21T17:38:14.749Z,52.66
2018-09-21T17:40:49.435Z,52.91
2018-09-21T17:43:23.901Z,51.99
2018-09-21T17:45:58.567Z,52.66
2018-09-21T17:48:33.244Z,51.61
2018-09-21T17:51:08.377Z,52.74
2018-09-21T17:53:43.253Z,51.47
2018-09-21T17:56:17.771Z,51.65
2018-09-21T17:58:52.903Z,51.59
2018-09-21T18:01:28.005Z,51.80
2018-09-21T18:04:03.088Z,52.88
2018-09-21T18:06:37.600Z,52.11
2018-09-21T18:09:12.177Z,53.14
2018-09-21T18:11:46.880Z,53.30
2018-09-21T18:14:21.660Z,53.37
2018-09-21T18:16:56.076Z,53.57
2018-09-21T18:19:30.816Z,53.40
2018-09-21T18:22:05.162Z,55.74
2018-09-21T18:24:40.143Z,54.98
2018-09-21T18:27:14.709Z,54.82
2018-09-21T18:29:49.408Z,55.86
2018-09-21T18:32:23.807Z,54.59
2018-09-21T18:34:58.532Z,55.31
2018-09-21T18:37:33.409Z,55.74
2018-09-21T18:40:09.016Z,54.58
2018-09-21T18:42:43.857Z,55.14
2018-09-21T18:45:18.669Z,53.97
2018-09-21T18:47:53.240Z,54.55
2018-09-21T18:50:27.876Z,55.80
2018-09-21T18:53:02.894Z,54.43
2018-09-21T18:55:38.269Z,53.99
2018-09-21T18:58:12.795Z,54.83
2018-09-21T19:00:47.766Z,54.72
2018-09-21T19:03:24.295Z,56.88
2018-09-21T19:05:58.752Z,56.71
2018-09-21T19:08:33.231Z,58.73
2018-09-21T19:11:08.067Z,58.76
2018-09-21T19:13:42.662Z,61.68
2018-09-21T19:16:16.983Z,63.17
2018-09-21T19:18:51.929Z,65.63
2018-09-21T19:21:28.338Z,66.28
2018-09-21T19:24:03.105Z,67.76
2018-09-21T19:26:37.510Z,70.29
2018-09-21T19:29:12.407Z,71.22
2018-09-21T19:31:47.188Z,73.21
2018-09-21T19:34:21.624Z,73.48
2018-09-21T19:37:00.737Z,71.02
2018-09-21T19:39:39.853Z,70.08
2018-09-21T19:42:16.723Z,69.73
2018-09-21T19:44:51.636Z,72.80
2018-09-21T19:47:28.715Z,72.95
2018-09-21T19:50:03.862Z,73.61
2018-09-21T19:52:38.332Z,76.07
2018-09-21T19:55:12.660Z,76.41
2018-09-21T19:57:47.135Z,77.97
2018-09-21T20:00:21.959Z,77.63
2018-09-21T20:02:56.487Z,78.25
2018-09-21T20:05:36.848Z,78.89
2018-09-21T20:08:11.472Z,78.85
2018-09-21T20:10:52.656Z,78.65
2018-09-21T20:13:26.931Z,78.24
2018-09-21T20:16:01.269Z,77.26
2018-09-21T20:18:35.713Z,77.98
2018-09-21T20:21:14.977Z,76.30
2018-09-21T20:23:49.606Z,77.71
2018-09-21T20:26:24.669Z,77.58
2018-09-21T20:28:59.673Z,78.44
2018-09-21T20:31:43.724Z,77.89
2018-09-21T20:34:23.441Z,77.13
2018-09-21T20:36:58.595Z,76.53
2018-09-21T20:39:33.156Z,77.04
2018-09-21T20:42:08.247Z,76.50
2018-09-21T20:44:49.278Z,77.19
2018-09-21T20:47:24.178Z,77.41
2018-09-21T20:49:58.795Z,77.72
2018-09-21T20:52:33.655Z,79.15
2018-09-21T20:55:08.068Z,77.36
2018-09-21T20:57:42.712Z,77.40
2018-09-21T21:00:17.772Z,77.65
2018-09-21T21:02:52.424Z,79.50
2018-09-21T21:05:27.149Z,79.76
2018-09-21T21:08:02.701Z,79.70
2018-09-21T21:10:37.140Z,78.01
2018-09-21T21:13:11.513Z,78.14
2018-09-21T21:15:46.911Z,78.42
2018-09-21T21:18:21.667Z,78.85
2018-09-21T21:20:56.108Z,80.51
2018-09-21T21:23:31.560Z,79.13
2018-09-21T21:26:06.400Z,79.28
2018-09-21T21:28:41.191Z,79.50
2018-09-21T21:31:16.027Z,79.28
2018-09-21T21:33:50.949Z,79.98
2018-09-21T21:36:25.574Z,79.21
2018-09-21T21:38:59.976Z,77.92
2018-09-21T21:41:34.423Z,78.43
2018-09-21T21:44:08.874Z,78.68
2018-09-21T21:46:43.657Z,78.37
2018-09-21T21:49:18.015Z,78.39
2018-09-21T21:51:52.295Z,79.08
2018-09-21T21:54:26.786Z,79.53
2018-09-21T21:57:01.712Z,79.86
2018-09-21T21:59:36.198Z,78.56
2018-09-21T22:02:12.067Z,78.25
2018-09-21T22:04:46.350Z,77.59
2018-09-21T22:07:20.801Z,77.98
2018-09-21T22:09:55.396Z,78.60
2018-09-21T22:12:35.293Z,78.57
2018-09-21T22:15:18.479Z,78.47
2018-09-21T22:17:55.021Z,79.03
2018-09-21T22:20:29.888Z,77.37
2018-09-21T22:23:05.015Z,78.00
2018-09-21T22:25:39.397Z,78.57
2018-09-21T22:28:13.956Z,78.53
2018-09-21T22:30:48.278Z,78.96
2018-09-21T22:33:22.960Z,78.28
2018-09-21T22:35:57.324Z,79.06
2018-09-21T22:38:32.634Z,79.62
2018-09-21T22:41:07.840Z,79.09
2018-09-21T22:43:42.211Z,78.95
2018-09-21T22:46:17.122Z,78.19
2018-09-21T22:48:52.604Z,78.56
2018-09-21T22:51:27.027Z,78.87
2018-09-21T22:54:01.820Z,79.76
2018-09-21T22:56:36.754Z,79.51
2018-09-21T22:59:11.397Z,79.95
2018-09-21T23:01:46.708Z,79.46
2018-09-21T23:04:21.143Z,79.29
2018-09-21T23:06:56.109Z,80.11
2018-09-21T23:09:30.408Z,80.57
2018-09-21T23:12:05.139Z,80.51
2018-09-21T23:14:40.755Z,80.83
2018-09-21T23:17:15.560Z,80.63
2018-09-21T23:19:50.176Z,79.98
2018-09-21T23:22:24.752Z,80.54
2018-09-21T23:24:59.545Z,79.34
2018-09-21T23:27:34.275Z,79.46
2018-09-21T23:30:09.115Z,79.13
2018-09-21T23:32:43.556Z,78.87
2018-09-21T23:35:18.143Z,79.23
2018-09-21T23:37:52.613Z,78.58
2018-09-21T23:40:27.016Z,78.53
2018-09-21T23:43:01.427Z,78.93
2018-09-21T23:45:35.827Z,79.60
2018-09-21T23:48:10.323Z,79.13
2018-09-21T23:50:44.838Z,79.51
2018-09-21T23:53:19.344Z,78.63
2018-09-21T23:55:53.800Z,78.93
2018-09-21T23:58:28.200Z,77.75
